Flight Track Log - Related Links

Times and Time Zones

All times are in EDT time to prevent confusion due to time zone crossing. See the THY2229 flight status page for this flight to view local times or setup timezone preferences in your user account.

Time Position Orientation Groundspeed Altitude Reporting Facility
EDT Latitude Longitude Course Direction KTS MPH feet Rate Location/Type
Thu 04:53:00 PM 37.3242 36.7603 304° West  Level Estimated
Thu 04:54:00 PM 37.3778 36.6571 303° West  Level Estimated
Thu 04:55:00 PM 37.4312 36.5538 303° West  Level Estimated
Thu 04:56:00 PM 37.4845 36.4503 303° West  Level Estimated
Thu 04:57:00 PM 37.5378 36.3466 303° West  Level Estimated
Thu 04:58:00 PM 37.5909 36.2428 303° West  Level Estimated
Thu 04:59:00 PM 37.6440 36.1389 303° West  Level Estimated
Thu 05:00:00 PM 37.6969 36.0348 303° West  Level Estimated
Thu 05:01:00 PM 37.7498 35.9305 303° West  Level Estimated
Thu 05:02:00 PM 37.8026 35.8262 303° West  Level Estimated
Thu 05:03:00 PM 37.8553 35.7216 303° West  Level Estimated
Thu 05:04:00 PM 37.9079 35.6169 303° West  Level Estimated
Thu 05:05:00 PM 37.9604 35.5121 302° West  Level Estimated
Thu 05:06:00 PM 38.0128 35.4071 302° West  Level Estimated
Thu 05:07:00 PM 38.0651 35.3020 302° West  Level Estimated
Thu 05:08:00 PM 38.1174 35.1967 302° West  Level Estimated
Thu 05:09:00 PM 38.1695 35.0912 302° West  Level Estimated
Thu 05:10:00 PM 38.2215 34.9856 302° West  Level Estimated
Thu 05:11:00 PM 38.2735 34.8799 302° West  Level Estimated
Thu 05:12:00 PM 38.3253 34.7740 302° West  Level Estimated
Thu 05:13:00 PM 38.3771 34.6680 302° West  Level Estimated
Thu 05:14:00 PM 38.4287 34.5618 302° West  Level Estimated
Thu 05:15:00 PM 38.4803 34.4554 302° West  Level Estimated
Thu 05:16:00 PM 38.5317 34.3489 302° West  Level Estimated
Thu 05:17:00 PM 38.5831 34.2423 302° West  Level Estimated
Thu 05:18:00 PM 38.6344 34.1354 302° West  Level Estimated
Thu 05:19:00 PM 38.6856 34.0285 302° West  Level Estimated
Thu 05:20:00 PM 38.7366 33.9214 301° West  Level Estimated
Thu 05:21:00 PM 38.7876 33.8141 301° West  Level Estimated
Thu 05:22:00 PM 38.8385 33.7067 301° West  Level Estimated
Thu 05:23:00 PM 38.8893 33.5991 301° West  Level Estimated
Thu 05:24:00 PM 38.9399 33.4914 301° West  Level Estimated
Thu 05:25:00 PM 38.9905 33.3835 301° West  Level Estimated
Thu 05:26:00 PM 39.0410 33.2755 301° West  Level Estimated
Thu 05:27:00 PM 39.0914 33.1673 301° West  Level Estimated
Thu 05:28:00 PM 39.1417 33.0590 301° West  Level Estimated
Thu 05:29:00 PM 39.1918 32.9505 301° West  Level Estimated
Thu 05:30:00 PM 39.2419 32.8418 301° West  Level Estimated
Thu 05:31:00 PM 39.2919 32.7330 301° West  Level Estimated
Thu 05:32:00 PM 39.3418 32.6240 301° West  Level Estimated
Thu 05:33:00 PM 39.3916 32.5149 301° West  Level Estimated
Thu 05:34:00 PM 39.4412 32.4057 301° West  Level Estimated
Thu 05:35:00 PM 39.4908 32.2962 300° West  Level Estimated
Thu 05:36:00 PM 39.5403 32.1866 300° West  Level Estimated
Thu 05:37:00 PM 39.5897 32.0769 300° West  Level Estimated
Thu 05:38:00 PM 39.6389 31.9670 300° West  Level Estimated
Thu 05:39:00 PM 39.6881 31.8569 300° West  Level Estimated
Thu 05:40:00 PM 39.7371 31.7467 300° West  Level Estimated
Thu 05:41:00 PM 39.7861 31.6364 300° West  Level Estimated
Thu 05:42:00 PM 39.8349 31.5258 300° West  Level Estimated
Thu 05:43:00 PM 39.8837 31.4152 300° West  Level Estimated
Thu 05:44:00 PM 39.9323 31.3043 300° West  Level Estimated
Thu 05:45:00 PM 39.9809 31.1933 300° West  Level Estimated
Thu 05:46:00 PM 40.0293 31.0822 300° West  Level Estimated
Thu 05:47:00 PM 40.0776 30.9709 300° West  Level Estimated
Thu 05:48:00 PM 40.1258 30.8594 300° West  Level Estimated
Thu 05:49:00 PM 40.1739 30.7478 299° West  Level Estimated
Thu 05:50:00 PM 40.2219 30.6360 299° West  Level Estimated
Thu 05:51:00 PM 40.2698 30.5240 299° West  Level Estimated
Thu 05:52:00 PM 40.3176 30.4119 299° West  Level Estimated
Thu 05:53:00 PM 40.3653 30.2997 299° West  Level Estimated
Thu 05:54:00 PM 40.4128 30.1873 299° West  Level Estimated
Thu 05:55:00 PM 40.4603 30.0747 299° West  Level Estimated
Thu 05:56:00 PM 40.5076 29.9619 299° West  Level Estimated
Thu 05:57:00 PM 40.5549 29.8490 299° West  Level Estimated
Thu 05:58:00 PM 40.6020 29.7360 299° West  Level Estimated
Thu 05:59:00 PM 40.6490 29.6227 299° West  Level Estimated
Thu 06:00:00 PM 40.6959 29.5094 299° West  Level Estimated
Thu 06:01:00 PM 40.7427 29.3958 299° West  Level Estimated
Thu 06:02:00 PM 40.7894 29.2821 299° West  Level Estimated
Thu 06:03:00 PM 40.8360 29.1683 298° West  Level Estimated
Thu 06:04:00 PM 40.8824 29.0543 298° West  Level Estimated
Thu 06:05:00 PM 40.9288 28.9401 298° West  Level Estimated
Thu 06:06:00 PM 40.9750 28.8258 298° West  Level Estimated
Thu 06:07:00 PM 40.9769 28.8211 298° West  Level Estimated
Thu 06:08:00 PM 40.9769 28.8211 21° North  Level Estimated
Thu 06:09:00 PM 40.9769 28.8211 21° North  Level Estimated
Thu 06:10:00 PM 40.9769 28.8211 21° North  Level Estimated
Thu 06:11:00 PM 40.9769 28.8211 21° North  Level Estimated
Thu 06:12:00 PM 40.9769 28.8211 21° North  Level Estimated
Thu 06:13:00 PM 40.9769 28.8211 21° North  Level Estimated
Thu 06:14:00 PM 40.9769 28.8211 21° North  Level Estimated
Thu 06:15:00 PM 40.9769 28.8211 21° North  Level Estimated
Thu 06:16:00 PM 40.9769 28.8211 21° North  Level Estimated
Thu 06:17:00 PM 40.9769 28.8211 21° North  Level Estimated
Thu 06:18:00 PM 40.9769 28.8211 21° North  Level Estimated
Thu 06:19:00 PM 40.9769 28.8211 21° North  Level Estimated
Thu 06:20:00 PM 40.9769 28.8211 21° North  Level Estimated
Thu 06:21:00 PM 40.9769 28.8211 21° North  Level Estimated

Login

Don't have an account? Register now (free) for customized features, flight alerts, and more!